Time;durP1;ratioP1;P1;durP2;ratioP2;P2;SDS_P1;SDS_P2;PMS_P1;PMS_P2;Temp;Humidity;BMP_temperature;BMP_pressure;BME280_temperature;BME280_humidity;BME280_pressure;Samples;Min_cycle;Max_cycle;Signal;HPM_P1;HPM_P2
2021/10/12 00:01:04;;;;;;;0.28;0.28;;;13.40;88.50;;;;;;5118903;27;20488;-72
2021/10/12 00:03:29;;;;;;;3.58;1.17;;;13.40;88.50;;;;;;5117431;27;20035;-72
2021/10/12 00:05:55;;;;;;;2.80;1.17;;;13.40;89.20;;;;;;5117789;27;20080;-72
2021/10/12 00:08:21;;;;;;;8.63;1.05;;;13.40;88.70;;;;;;5118530;27;20034;-71
2021/10/12 00:10:46;;;;;;;2.10;1.30;;;13.40;88.80;;;;;;5125635;27;20115;-72
2021/10/12 00:13:12;;;;;;;2.40;0.35;;;13.40;89.00;;;;;;5097068;28;20035;-72
2021/10/12 00:15:38;;;;;;;3.30;1.13;;;13.30;89.10;;;;;;5126774;27;20027;-71
2021/10/12 00:18:03;;;;;;;15.77;1.63;;;13.30;89.30;;;;;;5121693;27;20047;-72
2021/10/12 00:20:29;;;;;;;0.47;0.45;;;13.30;89.40;;;;;;5127361;27;20023;-72
2021/10/12 00:22:54;;;;;;;0.38;0.38;;;13.30;89.60;;;;;;5117632;27;20118;-72
2021/10/12 00:25:20;;;;;;;3.30;0.85;;;13.30;89.90;;;;;;5124854;27;20066;-72
2021/10/12 00:27:46;;;;;;;3.30;0.65;;;13.30;90.00;;;;;;5130958;27;20038;-72
2021/10/12 00:30:11;;;;;;;7.38;0.77;;;13.20;90.00;;;;;;5133183;27;20035;-72
2021/10/12 00:32:37;;;;;;;6.60;1.00;;;13.20;90.10;;;;;;5119437;27;20039;-72
2021/10/12 00:35:03;;;;;;;0.80;0.57;;;13.20;90.10;;;;;;5120032;27;20058;-72
2021/10/12 00:37:29;;;;;;;0.95;0.68;;;13.20;90.10;;;;;;5131840;27;20063;-72
2021/10/12 00:39:55;;;;;;;4.32;0.77;;;13.20;90.10;;;;;;5128915;27;20589;-72
2021/10/12 00:42:21;;;;;;;0.63;0.50;;;13.20;90.10;;;;;;5127652;27;20024;-72
2021/10/12 00:44:46;;;;;;;2.13;1.00;;;13.20;90.10;;;;;;5126690;27;20099;-72
2021/10/12 00:47:12;;;;;;;1.77;0.25;;;13.20;90.20;;;;;;5102782;27;20054;-72
2021/10/12 00:49:38;;;;;;;1.42;1.33;;;13.20;90.20;;;;;;5125284;27;20027;-72
2021/10/12 00:52:04;;;;;;;2.33;0.40;;;13.20;90.20;;;;;;5128400;27;20110;-72
2021/10/12 00:54:29;;;;;;;5.22;1.38;;;13.20;90.20;;;;;;5114997;27;20027;-71
2021/10/12 00:56:56;;;;;;;6.93;1.13;;;13.20;90.20;;;;;;5113215;27;20482;-72
2021/10/12 00:59:21;;;;;;;0.60;0.40;;;13.30;90.30;;;;;;5133003;27;20114;-72
2021/10/12 01:01:47;;;;;;;4.95;1.10;;;13.20;90.20;;;;;;5121168;27;20107;-72
2021/10/12 01:04:12;;;;;;;6.15;1.13;;;13.30;90.20;;;;;;5119206;27;20034;-72
2021/10/12 01:06:38;;;;;;;0.50;0.50;;;13.30;90.10;;;;;;5123069;27;20028;-72
2021/10/12 01:09:04;;;;;;;13.25;1.42;;;13.30;90.10;;;;;;5124793;27;20031;-72
2021/10/12 01:11:33;;;;;;;6.45;0.95;;;13.30;90.00;;;;;;5116421;27;20036;-72
2021/10/12 01:14:01;;;;;;;4.07;0.75;;;13.30;90.00;;;;;;5116881;27;20110;-71
2021/10/12 01:16:26;;;;;;;2.70;1.02;;;13.30;90.00;;;;;;5120449;27;20031;-72
2021/10/12 01:19:00;;;;;;;3.53;1.20;;;13.30;90.00;;;;;;5122569;27;20035;-72
2021/10/12 01:21:27;;;;;;;2.00;0.68;;;13.40;90.20;;;;;;5127742;27;20019;-71
2021/10/12 01:23:53;;;;;;;5.07;0.88;;;13.30;90.30;;;;;;5114812;27;20043;-71
2021/10/12 01:26:19;;;;;;;2.90;1.02;;;13.20;90.50;;;;;;5132467;27;20034;-71
2021/10/12 01:28:44;;;;;;;6.35;1.30;;;13.20;90.70;;;;;;5132626;27;20371;-72
2021/10/12 01:31:22;;;;;;;1.75;0.77;;;13.20;90.80;;;;;;5130952;27;20026;-71
2021/10/12 01:33:48;;;;;;;2.00;0.93;;;13.10;91.00;;;;;;5133814;27;20105;-71
2021/10/12 01:36:14;;;;;;;4.82;1.00;;;13.10;91.10;;;;;;5128334;27;20036;-71
2021/10/12 01:38:40;;;;;;;3.67;1.00;;;13.10;91.20;;;;;;5131198;27;20031;-71
2021/10/12 01:41:05;;;;;;;0.70;0.47;;;13.10;91.30;;;;;;5133047;27;20530;-71
2021/10/12 01:43:31;;;;;;;4.55;0.93;;;13.00;91.40;;;;;;5130104;27;20019;-71
2021/10/12 01:46:00;;;;;;;2.47;0.82;;;13.00;91.40;;;;;;5115442;27;20074;-71
2021/10/12 01:48:26;;;;;;;2.20;0.65;;;13.00;91.50;;;;;;5122503;27;20024;-71
2021/10/12 01:50:52;;;;;;;3.10;0.57;;;13.00;91.60;;;;;;5102959;28;20085;-71
2021/10/12 01:53:17;;;;;;;0.88;0.60;;;13.00;91.60;;;;;;5114751;27;20072;-71
2021/10/12 01:55:43;;;;;;;2.60;0.85;;;13.00;91.60;;;;;;5121777;27;20023;-71
2021/10/12 01:58:08;;;;;;;1.13;0.95;;;13.10;91.70;;;;;;5116761;27;20490;-72
2021/10/12 02:00:34;;;;;;;2.80;0.80;;;13.00;91.60;;;;;;5119637;27;20023;-71
2021/10/12 02:03:00;;;;;;;0.93;0.47;;;13.10;91.70;;;;;;5120344;27;20051;-72
2021/10/12 02:05:26;;;;;;;1.38;0.65;;;13.10;91.70;;;;;;5113217;27;20043;-72
2021/10/12 02:07:51;;;;;;;0.70;0.57;;;13.10;91.80;;;;;;5114321;27;20035;-71
2021/10/12 02:10:17;;;;;;;0.85;0.45;;;13.10;91.70;;;;;;5111569;27;20066;-71
2021/10/12 02:16:29;;;;;;;1.95;0.82;;;13.20;91.70;;;;;;5099574;27;20030;-71
2021/10/12 02:18:55;;;;;;;0.60;0.60;;;13.20;91.70;;;;;;5116106;27;20039;-71
2021/10/12 02:21:20;;;;;;;3.90;1.45;;;13.20;91.70;;;;;;5100531;27;20027;-71
2021/10/12 02:23:46;;;;;;;3.63;0.82;;;13.20;91.70;;;;;;5102244;27;20028;-71
2021/10/12 02:26:12;;;;;;;6.60;0.88;;;13.20;91.80;;;;;;5099954;27;20028;-72
2021/10/12 02:28:37;;;;;;;1.20;0.35;;;13.20;91.80;;;;;;5110370;28;20035;-71
2021/10/12 02:31:03;;;;;;;0.52;0.52;;;13.20;91.90;;;;;;5120534;27;20042;-71
2021/10/12 02:33:28;;;;;;;2.63;1.05;;;13.20;91.90;;;;;;5108711;28;20031;-71
2021/10/12 02:35:54;;;;;;;1.33;0.70;;;13.20;92.00;;;;;;5124534;27;20037;-71
2021/10/12 02:38:20;;;;;;;4.55;1.10;;;13.20;92.00;;;;;;5112095;27;20039;-71
2021/10/12 02:40:45;;;;;;;1.98;1.20;;;13.20;92.00;;;;;;5104926;27;20100;-71
2021/10/12 02:43:11;;;;;;;0.30;0.30;;;13.20;92.10;;;;;;5109280;27;20045;-72
2021/10/12 02:45:37;;;;;;;4.72;2.13;;;13.20;92.20;;;;;;5123094;27;20019;-71
2021/10/12 02:48:03;;;;;;;0.52;0.45;;;13.20;92.20;;;;;;5114088;27;20526;-71
2021/10/12 02:50:28;;;;;;;8.45;1.08;;;13.20;92.20;;;;;;5121134;27;20099;-71
2021/10/12 02:52:54;;;;;;;10.90;0.70;;;13.20;92.10;;;;;;5113014;27;20039;-71
2021/10/12 02:55:19;;;;;;;3.90;1.63;;;13.30;92.10;;;;;;5106181;28;20020;-71
2021/10/12 02:57:45;;;;;;;8.30;0.75;;;13.30;92.00;;;;;;5109487;28;20494;-72
2021/10/12 03:00:11;;;;;;;6.78;0.85;;;13.40;92.00;;;;;;5122658;27;20479;-71
2021/10/12 03:02:36;;;;;;;2.35;0.82;;;13.30;91.90;;;;;;5113792;28;20063;-71
2021/10/12 03:05:03;;;;;;;1.35;0.65;;;13.40;91.90;;;;;;5116029;27;20035;-72
2021/10/12 03:07:28;;;;;;;3.70;1.17;;;13.40;91.80;;;;;;5120701;28;20378;-72
2021/10/12 03:09:54;;;;;;;4.05;0.40;;;13.40;91.80;;;;;;5111729;28;20079;-71
2021/10/12 03:12:19;;;;;;;9.63;0.73;;;13.40;91.80;;;;;;5118994;28;20019;-72
2021/10/12 03:14:45;;;;;;;6.55;1.00;;;13.50;91.80;;;;;;5114489;28;20047;-72
2021/10/12 03:17:11;;;;;;;6.05;1.33;;;13.40;91.70;;;;;;5120143;28;20031;-71
2021/10/12 03:19:36;;;;;;;4.60;1.40;;;13.40;91.70;;;;;;5118953;28;20011;-72
2021/10/12 03:22:11;;;;;;;11.55;1.80;;;13.40;91.70;;;;;;5114778;28;20030;-72
2021/10/12 03:24:38;;;;;;;10.02;1.27;;;13.50;91.80;;;;;;5111689;28;20089;-71
2021/10/12 03:27:04;;;;;;;9.05;1.80;;;13.60;92.00;;;;;;5124247;28;20023;-72
2021/10/12 03:29:30;;;;;;;6.38;1.40;;;13.60;92.00;;;;;;5118072;28;20073;-72
2021/10/12 03:31:59;;;;;;;6.00;1.60;;;13.70;92.30;;;;;;5121550;28;20423;-72
2021/10/12 03:34:26;;;;;;;9.25;1.83;;;13.80;92.10;;;;;;5116886;28;20095;-72
2021/10/12 03:36:51;;;;;;;9.07;1.45;;;13.80;92.20;;;;;;5119766;28;20032;-71
2021/10/12 03:39:17;;;;;;;11.30;1.55;;;13.90;92.10;;;;;;5122582;28;20039;-72
2021/10/12 03:41:42;;;;;;;3.55;1.15;;;13.90;91.90;;;;;;5112703;28;20020;-71
2021/10/12 03:44:08;;;;;;;10.30;2.00;;;14.00;91.30;;;;;;5112098;28;20023;-72
2021/10/12 03:46:34;;;;;;;7.18;1.60;;;14.00;91.30;;;;;;5106619;28;20502;-70
2021/10/12 03:48:59;;;;;;;7.88;1.27;;;14.00;91.30;;;;;;5109310;28;20115;-71
2021/10/12 03:51:25;;;;;;;8.18;1.98;;;14.00;91.20;;;;;;5116170;28;20432;-72
2021/10/12 03:53:50;;;;;;;12.13;2.15;;;14.00;91.20;;;;;;5115026;28;20028;-71
2021/10/12 03:56:16;;;;;;;16.85;3.47;;;14.00;91.10;;;;;;5123972;28;20027;-72
2021/10/12 03:58:42;;;;;;;6.97;1.60;;;14.00;91.10;;;;;;5121042;28;20047;-71
2021/10/12 04:01:07;;;;;;;17.58;1.83;;;14.00;91.00;;;;;;5115732;28;20054;-71
2021/10/12 04:03:33;;;;;;;14.30;2.05;;;14.00;91.10;;;;;;5124524;28;20378;-71
2021/10/12 04:05:58;;;;;;;10.63;2.15;;;14.00;91.30;;;;;;5117033;28;20023;-70
2021/10/12 04:08:24;;;;;;;13.27;2.10;;;14.10;91.40;;;;;;5127857;28;20504;-71
2021/10/12 04:10:50;;;;;;;9.65;1.75;;;14.00;91.20;;;;;;5117612;28;20016;-71
2021/10/12 04:13:15;;;;;;;10.35;1.67;;;14.00;91.20;;;;;;5113345;28;20081;-71
2021/10/12 04:15:41;;;;;;;13.68;2.47;;;14.10;91.40;;;;;;5123179;28;20016;-74
2021/10/12 04:18:10;;;;;;;8.43;2.10;;;14.10;91.40;;;;;;5111431;28;20035;-78
2021/10/12 04:20:35;;;;;;;20.00;1.98;;;14.10;91.50;;;;;;5121516;28;20023;-73
2021/10/12 04:23:02;;;;;;;8.63;1.48;;;14.20;91.60;;;;;;5121654;27;20500;-72
2021/10/12 04:25:28;;;;;;;11.63;1.45;;;14.20;91.70;;;;;;5124944;27;20053;-72
2021/10/12 04:27:53;;;;;;;16.15;1.35;;;14.20;91.70;;;;;;5114675;28;20462;-72
2021/10/12 04:30:19;;;;;;;15.20;2.22;;;14.20;91.80;;;;;;5123794;27;20115;-72
2021/10/12 04:32:48;;;;;;;11.43;1.63;;;14.30;91.80;;;;;;5107326;27;20031;-71
2021/10/12 04:35:13;;;;;;;9.05;1.20;;;14.30;91.80;;;;;;5122020;27;20046;-72
2021/10/12 04:37:39;;;;;;;4.55;1.00;;;14.30;91.70;;;;;;5126072;27;20122;-71
2021/10/12 04:40:05;;;;;;;7.20;1.05;;;14.30;91.50;;;;;;5106809;27;20054;-72
2021/10/12 04:42:31;;;;;;;7.32;1.05;;;14.30;91.30;;;;;;5118679;27;20030;-71
2021/10/12 04:44:58;;;;;;;7.13;1.35;;;14.40;91.30;;;;;;5123496;27;20134;-71
2021/10/12 04:47:23;;;;;;;10.10;1.52;;;14.40;91.20;;;;;;5110918;27;20471;-71
2021/10/12 04:49:49;;;;;;;11.90;1.50;;;14.40;91.00;;;;;;5132683;27;20023;-71
2021/10/12 04:52:18;;;;;;;5.95;1.08;;;14.40;91.10;;;;;;5118020;27;20039;-71
2021/10/12 04:54:44;;;;;;;8.10;1.20;;;14.40;91.20;;;;;;5106825;27;20054;-71
2021/10/12 04:57:10;;;;;;;10.13;1.55;;;14.50;91.20;;;;;;5107584;27;20039;-70
2021/10/12 04:59:35;;;;;;;9.13;1.17;;;14.50;91.20;;;;;;5117713;27;20088;-70
2021/10/12 05:02:01;;;;;;;15.55;2.28;;;14.40;91.30;;;;;;5120894;27;20020;-73
2021/10/12 05:04:27;;;;;;;8.75;1.60;;;14.50;91.30;;;;;;5108837;27;20058;-73
2021/10/12 05:06:54;;;;;;;9.20;1.55;;;14.60;91.20;;;;;;5117698;27;20020;-70
2021/10/12 05:09:19;;;;;;;6.78;1.25;;;14.50;91.20;;;;;;5123775;27;20435;-70
2021/10/12 05:11:45;;;;;;;7.10;0.77;;;14.50;91.20;;;;;;5115428;27;20031;-71
2021/10/12 05:14:11;;;;;;;9.75;1.10;;;14.50;91.10;;;;;;5105247;27;20031;-71
2021/10/12 05:16:37;;;;;;;3.65;0.73;;;14.60;91.10;;;;;;5118698;27;20027;-71
2021/10/12 05:19:03;;;;;;;4.13;1.10;;;14.50;91.10;;;;;;5108156;27;20061;-71
2021/10/12 05:21:29;;;;;;;7.53;1.05;;;14.50;91.00;;;;;;5114890;27;20460;-72
2021/10/12 05:23:55;;;;;;;7.47;1.55;;;14.60;91.00;;;;;;5108090;27;20036;-71
2021/10/12 05:26:22;;;;;;;6.95;1.05;;;14.50;90.90;;;;;;5108967;27;20038;-71
2021/10/12 05:28:52;;;;;;;6.78;1.10;;;14.60;90.90;;;;;;5120015;27;20027;-71
2021/10/12 05:31:19;;;;;;;4.95;0.95;;;14.60;90.80;;;;;;5126941;27;20524;-71
2021/10/12 05:33:46;;;;;;;2.97;0.90;;;14.60;90.70;;;;;;5115851;27;20401;-75
2021/10/12 05:36:12;;;;;;;2.30;0.85;;;14.60;90.70;;;;;;5114900;27;20031;-71
2021/10/12 05:38:38;;;;;;;4.10;1.25;;;14.60;90.60;;;;;;5108915;27;20050;-71
2021/10/12 05:41:04;;;;;;;5.70;1.42;;;14.60;90.60;;;;;;5120200;27;20465;-73
2021/10/12 05:43:29;;;;;;;3.65;0.70;;;14.60;90.50;;;;;;5120012;27;20016;-71
2021/10/12 05:45:55;;;;;;;5.93;1.30;;;14.60;90.30;;;;;;5122721;27;20031;-67
2021/10/12 05:48:21;;;;;;;10.00;1.23;;;14.60;90.20;;;;;;5107843;27;20096;-70
2021/10/12 05:50:47;;;;;;;6.90;1.25;;;14.60;90.20;;;;;;5112802;27;20378;-70
2021/10/12 05:56:16;;;;;;;11.95;1.85;;;14.50;90.40;;;;;;5121128;27;20024;-70
2021/10/12 05:58:48;;;;;;;7.35;1.27;;;14.50;90.40;;;;;;5109328;27;20086;-70
2021/10/12 06:01:14;;;;;;;7.32;1.55;;;14.40;90.40;;;;;;5114348;27;20035;-70
2021/10/12 06:03:40;;;;;;;10.35;1.15;;;14.30;90.40;;;;;;5121787;27;20027;-70
2021/10/12 06:06:06;;;;;;;7.22;1.38;;;14.40;90.50;;;;;;5118946;27;20034;-70
2021/10/12 06:08:33;;;;;;;7.15;1.17;;;14.30;90.60;;;;;;5117780;27;20027;-70
2021/10/12 06:11:00;;;;;;;8.35;1.40;;;14.30;90.60;;;;;;5118040;27;20063;-70
2021/10/12 06:13:27;;;;;;;13.20;1.52;;;14.30;90.60;;;;;;5111373;27;21668;-70
2021/10/12 06:15:53;;;;;;;4.25;1.02;;;14.30;90.60;;;;;;5123980;27;20370;-70
2021/10/12 06:18:19;;;;;;;11.13;1.70;;;14.30;90.60;;;;;;5124076;27;20032;-71
2021/10/12 06:20:46;;;;;;;10.70;1.48;;;14.40;90.70;;;;;;5111506;27;20079;-70
2021/10/12 06:23:11;;;;;;;7.88;1.50;;;14.30;90.60;;;;;;5111064;27;20141;-70
2021/10/12 06:25:37;;;;;;;6.45;1.27;;;14.30;90.60;;;;;;5113682;27;20077;-70
2021/10/12 06:28:04;;;;;;;8.48;1.48;;;14.40;90.70;;;;;;5115725;27;20035;-70
2021/10/12 06:30:30;;;;;;;9.73;1.10;;;14.40;90.60;;;;;;5113703;27;20019;-70
2021/10/12 06:32:55;;;;;;;5.40;1.08;;;14.40;90.60;;;;;;5123960;27;20371;-70
2021/10/12 06:35:21;;;;;;;9.98;1.05;;;14.40;90.60;;;;;;5116354;27;20024;-70
2021/10/12 06:37:47;;;;;;;7.65;1.70;;;14.40;90.60;;;;;;5126447;27;20023;-70
2021/10/12 06:40:13;;;;;;;10.60;1.52;;;14.40;90.60;;;;;;5115187;27;20044;-70
2021/10/12 06:42:38;;;;;;;7.30;1.35;;;14.40;90.60;;;;;;5120879;27;20062;-70
2021/10/12 06:45:04;;;;;;;3.53;0.98;;;14.50;90.60;;;;;;5124567;27;20062;-70
2021/10/12 06:47:30;;;;;;;11.10;1.67;;;14.40;90.60;;;;;;5126224;27;20183;-70
2021/10/12 06:49:56;;;;;;;8.77;1.27;;;14.50;90.60;;;;;;5110968;28;20032;-70
2021/10/12 06:52:21;;;;;;;13.40;2.67;;;14.50;90.70;;;;;;5124531;27;20027;-70
2021/10/12 06:54:49;;;;;;;6.30;1.20;;;14.50;90.60;;;;;;5113578;28;20027;-70
2021/10/12 06:57:15;;;;;;;5.40;1.15;;;14.50;90.60;;;;;;5121670;27;20142;-75
2021/10/12 06:59:41;;;;;;;8.30;1.52;;;14.50;90.60;;;;;;5123117;27;20122;-73
2021/10/12 07:02:07;;;;;;;8.07;1.63;;;14.50;90.50;;;;;;5120925;27;20023;-74
2021/10/12 07:04:32;;;;;;;10.57;1.65;;;14.50;90.40;;;;;;5125805;27;20020;-75
2021/10/12 07:06:58;;;;;;;9.00;1.40;;;14.50;90.30;;;;;;5113379;28;20030;-71
2021/10/12 07:09:24;;;;;;;8.23;1.33;;;14.60;90.30;;;;;;5121516;28;20405;-71
2021/10/12 07:11:49;;;;;;;9.80;1.42;;;14.60;90.20;;;;;;5119909;28;20031;-72
2021/10/12 07:14:15;;;;;;;8.15;1.23;;;14.60;90.10;;;;;;5123909;28;20051;-72
2021/10/12 07:16:41;;;;;;;11.90;1.73;;;14.60;90.10;;;;;;5122122;28;20038;-72
2021/10/12 07:19:07;;;;;;;13.43;1.75;;;14.50;90.00;;;;;;5129917;28;20544;-72
2021/10/12 07:21:34;;;;;;;4.85;1.38;;;14.50;90.00;;;;;;5119883;28;20118;-72
2021/10/12 07:24:00;;;;;;;5.38;1.45;;;14.50;90.10;;;;;;5107392;28;20119;-72
2021/10/12 07:26:26;;;;;;;12.15;1.80;;;14.60;90.10;;;;;;5120024;28;20059;-72
2021/10/12 07:28:57;;;;;;;7.22;1.70;;;14.60;90.00;;;;;;5117420;28;20054;-72
2021/10/12 07:31:23;;;;;;;8.80;1.15;;;14.60;90.00;;;;;;5110101;28;20035;-72
2021/10/12 07:33:49;;;;;;;5.75;1.23;;;14.60;90.10;;;;;;5121108;28;20016;-72
2021/10/12 07:36:15;;;;;;;9.82;1.88;;;14.60;90.10;;;;;;5122501;28;20114;-72
2021/10/12 07:38:41;;;;;;;9.00;1.13;;;14.70;90.10;;;;;;5123354;28;20126;-72
2021/10/12 07:41:07;;;;;;;8.40;1.27;;;14.60;90.10;;;;;;5126428;28;20034;-72
2021/10/12 07:43:33;;;;;;;7.45;1.48;;;14.70;90.10;;;;;;5130287;28;20491;-72
2021/10/12 07:45:58;;;;;;;8.25;1.70;;;14.70;90.10;;;;;;5124860;28;20106;-72
2021/10/12 07:48:24;;;;;;;4.97;1.20;;;14.70;90.10;;;;;;5105212;28;20399;-72
2021/10/12 07:50:50;;;;;;;4.38;1.10;;;14.70;90.00;;;;;;5110224;28;20032;-70
2021/10/12 07:53:16;;;;;;;7.97;1.20;;;14.70;90.00;;;;;;5108167;28;20031;-70
2021/10/12 07:55:46;;;;;;;6.90;1.17;;;14.70;90.00;;;;;;5116333;28;20024;-70
2021/10/12 07:58:12;;;;;;;9.13;1.58;;;14.70;89.60;;;;;;5125639;27;20044;-70
2021/10/12 08:00:37;;;;;;;9.52;1.33;;;14.70;89.40;;;;;;5126989;27;20027;-70
2021/10/12 08:03:03;;;;;;;4.40;0.93;;;14.70;89.00;;;;;;5117421;27;20035;-70
2021/10/12 08:05:31;;;;;;;7.70;1.45;;;14.70;88.60;;;;;;5133351;27;20049;-70
2021/10/12 08:07:57;;;;;;;7.00;1.30;;;14.70;88.30;;;;;;5119413;27;20035;-70
2021/10/12 08:10:24;;;;;;;8.27;1.48;;;14.70;88.00;;;;;;5125791;27;20035;-70
2021/10/12 08:12:57;;;;;;;4.85;1.20;;;14.80;87.70;;;;;;5126739;27;20398;-70
2021/10/12 08:15:23;;;;;;;14.85;2.50;;;14.80;87.60;;;;;;5120107;27;20035;-70
2021/10/12 08:17:49;;;;;;;5.70;1.10;;;14.80;87.30;;;;;;5132672;27;20054;-70
2021/10/12 08:20:14;;;;;;;9.32;0.93;;;14.80;87.00;;;;;;5114635;27;20031;-70
2021/10/12 08:22:41;;;;;;;10.40;1.60;;;14.80;86.60;;;;;;5117118;27;20458;-70
2021/10/12 08:25:08;;;;;;;10.15;1.70;;;14.80;86.30;;;;;;5114014;27;20056;-70
2021/10/12 08:27:38;;;;;;;4.53;1.10;;;14.80;85.80;;;;;;5121276;27;20031;-70
2021/10/12 08:30:06;;;;;;;4.50;0.93;;;14.80;84.80;;;;;;5120118;27;20024;-70
2021/10/12 08:32:32;;;;;;;3.95;0.88;;;14.80;84.60;;;;;;5125682;27;20032;-70
2021/10/12 08:34:57;;;;;;;10.23;1.27;;;14.80;84.60;;;;;;5114696;27;20462;-70
2021/10/12 08:37:23;;;;;;;4.25;1.63;;;14.80;84.30;;;;;;5118213;27;20058;-70
2021/10/12 08:39:49;;;;;;;3.03;1.27;;;14.80;83.90;;;;;;5119449;27;20490;-70
2021/10/12 08:42:16;;;;;;;10.50;1.25;;;14.80;83.60;;;;;;5121537;27;20035;-70
2021/10/12 08:44:53;;;;;;;6.63;1.33;;;14.90;83.30;;;;;;5122087;27;20348;-70
2021/10/12 08:47:22;;;;;;;6.32;1.17;;;14.90;82.60;;;;;;5117717;27;20099;-70
2021/10/12 08:49:48;;;;;;;4.90;1.00;;;14.90;82.20;;;;;;5117814;27;20028;-71
2021/10/12 08:52:14;;;;;;;8.82;1.30;;;14.90;82.20;;;;;;5124996;27;20088;-74
2021/10/12 08:54:39;;;;;;;4.28;1.77;;;14.90;81.90;;;;;;5121388;27;20025;-73
2021/10/12 08:57:05;;;;;;;4.57;0.75;;;14.90;82.10;;;;;;5118934;27;20486;-73
2021/10/12 08:59:30;;;;;;;8.23;0.90;;;14.90;82.20;;;;;;5113895;27;20035;-73
2021/10/12 09:02:02;;;;;;;3.38;1.02;;;14.90;82.30;;;;;;5115191;27;20032;-73
2021/10/12 09:04:39;;;;;;;3.53;1.27;;;15.00;81.90;;;;;;5130037;27;20110;-74
2021/10/12 09:07:15;;;;;;;10.43;1.23;;;15.00;82.10;;;;;;5120975;27;20088;-73
2021/10/12 09:09:40;;;;;;;4.43;1.08;;;15.10;82.00;;;;;;5126002;27;20059;-74
2021/10/12 09:12:06;;;;;;;7.57;1.23;;;15.10;82.00;;;;;;5108536;27;20051;-73
2021/10/12 09:14:31;;;;;;;5.90;1.20;;;15.10;81.90;;;;;;5118427;27;20086;-74
2021/10/12 09:17:06;;;;;;;12.43;2.20;;;15.10;81.80;;;;;;5120418;27;20025;-75
2021/10/12 09:19:34;;;;;;;6.63;1.30;;;15.10;80.90;;;;;;5105626;27;20036;-74
2021/10/12 09:22:05;;;;;;;7.75;1.30;;;15.10;80.90;;;;;;5132700;27;20019;-76
2021/10/12 09:24:38;;;;;;;6.80;0.80;;;15.10;80.40;;;;;;5126337;27;20023;-74
2021/10/12 09:27:06;;;;;;;8.40;1.67;;;15.20;80.30;;;;;;5131278;27;20038;-73
2021/10/12 09:29:38;;;;;;;1.50;0.47;;;15.20;80.30;;;;;;5130456;27;20043;-73
2021/10/12 09:32:05;;;;;;;7.15;1.05;;;15.20;81.80;;;;;;5123439;27;20032;-73
2021/10/12 09:34:36;;;;;;;2.63;0.55;;;15.20;82.90;;;;;;5126705;27;20464;-74
2021/10/12 09:37:04;;;;;;;6.68;0.95;;;15.20;82.90;;;;;;5120809;27;20063;-74
2021/10/12 09:39:30;;;;;;;8.20;1.13;;;15.20;83.00;;;;;;5114140;27;20038;-73
2021/10/12 09:42:02;;;;;;;8.88;1.50;;;15.20;82.90;;;;;;5122741;27;20115;-73
2021/10/12 09:44:31;;;;;;;3.50;1.10;;;15.20;82.20;;;;;;5128257;27;20071;-74
2021/10/12 09:47:17;;;;;;;5.32;1.10;;;15.10;80.60;;;;;;5125987;27;20031;-74
2021/10/12 09:49:47;;;;;;;3.75;1.00;;;15.20;80.40;;;;;;5130148;27;20027;-73
2021/10/12 09:52:21;;;;;;;5.30;1.25;;;15.20;80.50;;;;;;5132109;27;20041;-74
2021/10/12 09:54:52;;;;;;;3.38;1.33;;;15.10;80.50;;;;;;5130152;27;20027;-73
2021/10/12 09:57:19;;;;;;;7.97;2.13;;;15.20;80.50;;;;;;5126741;27;20127;-73
2021/10/12 09:59:47;;;;;;;3.88;0.70;;;15.20;80.10;;;;;;5125683;27;20028;-71
2021/10/12 10:02:23;;;;;;;6.88;1.10;;;15.30;80.50;;;;;;5120701;27;20056;-71
2021/10/12 10:04:50;;;;;;;6.55;1.60;;;15.30;80.60;;;;;;5111264;28;20073;-71
2021/10/12 10:07:17;;;;;;;9.45;1.10;;;15.30;80.80;;;;;;5117477;27;20053;-71
2021/10/12 10:09:44;;;;;;;4.65;1.13;;;15.30;80.80;;;;;;5117099;27;20355;-71
2021/10/12 10:12:15;;;;;;;11.95;1.30;;;15.40;81.00;;;;;;5115585;27;20080;-71
2021/10/12 10:14:40;;;;;;;13.13;1.52;;;15.30;80.70;;;;;;5106751;27;20019;-71
2021/10/12 10:17:07;;;;;;;8.63;1.42;;;15.40;80.90;;;;;;5120616;27;20081;-71
2021/10/12 10:19:40;;;;;;;6.97;1.58;;;15.40;81.00;;;;;;5109791;27;20097;-71
2021/10/12 10:22:05;;;;;;;9.27;1.25;;;15.40;81.30;;;;;;5113454;27;20035;-71
2021/10/12 10:24:37;;;;;;;6.28;1.40;;;15.40;81.20;;;;;;5112170;27;20115;-71
2021/10/12 10:27:03;;;;;;;8.82;2.28;;;15.50;81.30;;;;;;5122511;27;20493;-71
2021/10/12 10:29:37;;;;;;;3.35;1.33;;;15.50;81.50;;;;;;5116853;27;20062;-71
2021/10/12 10:32:14;;;;;;;2.72;0.80;;;15.50;80.90;;;;;;5124506;27;20063;-71
2021/10/12 10:34:43;;;;;;;6.03;2.58;;;15.50;81.10;;;;;;5109395;27;20030;-71
2021/10/12 10:37:18;;;;;;;6.60;1.08;;;15.50;80.90;;;;;;5115950;27;20030;-71
2021/10/12 10:40:11;;;;;;;5.63;1.20;;;15.60;81.50;;;;;;5102197;28;20030;-71
2021/10/12 10:42:42;;;;;;;4.20;0.90;;;15.60;81.20;;;;;;5097699;28;20403;-70
2021/10/12 10:45:09;;;;;;;11.63;2.33;;;15.60;81.60;;;;;;5113105;27;20089;-75
2021/10/12 10:47:41;;;;;;;7.28;1.10;;;15.60;80.70;;;;;;5105050;27;20381;-72
2021/10/12 10:50:26;;;;;;;5.80;1.20;;;15.70;81.00;;;;;;5122140;27;20027;-72
2021/10/12 10:52:57;;;;;;;3.28;1.23;;;15.60;80.90;;;;;;5127915;27;20131;-73
2021/10/12 10:55:28;;;;;;;3.28;0.93;;;15.70;81.10;;;;;;5131182;27;20129;-73
2021/10/12 10:58:20;;;;;;;4.72;1.00;;;15.70;82.00;;;;;;5129031;27;20062;-74
2021/10/12 11:00:51;;;;;;;5.07;1.10;;;15.70;82.40;;;;;;5116415;27;20041;-77
2021/10/12 11:03:29;;;;;;;9.70;1.50;;;15.70;82.60;;;;;;5128992;27;20046;-72
2021/10/12 11:05:57;;;;;;;3.40;0.98;;;15.80;81.90;;;;;;5125829;27;20031;-71
2021/10/12 11:08:27;;;;;;;21.48;1.70;;;15.70;81.70;;;;;;5124095;27;20031;-72
2021/10/12 11:10:54;;;;;;;7.03;1.05;;;15.70;81.80;;;;;;5131372;28;20038;-71
2021/10/12 11:13:35;;;;;;;5.43;0.90;;;15.80;82.40;;;;;;5129131;28;20378;-79
2021/10/12 11:16:03;;;;;;;5.05;1.27;;;15.80;81.80;;;;;;5105998;28;20027;-73
2021/10/12 11:18:29;;;;;;;2.47;1.38;;;15.70;82.40;;;;;;5125933;28;20039;-72
2021/10/12 11:20:58;;;;;;;8.45;1.27;;;15.70;83.00;;;;;;5104671;28;20029;-72
2021/10/12 11:23:25;;;;;;;5.43;1.33;;;15.80;82.20;;;;;;5123549;28;20031;-73
2021/10/12 11:25:56;;;;;;;4.45;1.25;;;15.80;82.50;;;;;;5119451;28;20066;-72
2021/10/12 11:28:24;;;;;;;5.82;2.03;;;15.80;82.10;;;;;;5118785;28;20032;-72
2021/10/12 11:30:50;;;;;;;7.60;1.48;;;15.80;82.00;;;;;;5123719;27;20080;-72
2021/10/12 11:33:32;;;;;;;3.30;1.08;;;15.80;81.90;;;;;;5129354;27;20027;-72
2021/10/12 11:36:02;;;;;;;4.80;0.98;;;15.80;81.80;;;;;;5123572;27;20024;-72
2021/10/12 11:38:40;;;;;;;4.90;1.17;;;15.90;82.30;;;;;;5131061;27;20054;-72
2021/10/12 11:41:25;;;;;;;8.85;1.15;;;15.90;81.80;;;;;;5128254;27;20159;-72
2021/10/12 11:43:56;;;;;;;6.30;1.25;;;15.90;81.80;;;;;;5120837;27;20078;-72
2021/10/12 11:46:28;;;;;;;6.95;1.02;;;15.90;80.60;;;;;;5123478;27;20028;-72
2021/10/12 11:48:57;;;;;;;10.55;1.52;;;15.90;80.90;;;;;;5127545;27;20125;-72
2021/10/12 11:51:29;;;;;;;11.85;1.45;;;15.90;80.70;;;;;;5129458;27;20019;-72
2021/10/12 11:53:56;;;;;;;4.90;1.00;;;15.90;80.70;;;;;;5124197;27;20502;-72
2021/10/12 11:56:23;;;;;;;5.82;1.13;;;16.00;82.20;;;;;;5122812;27;20050;-71
2021/10/12 11:58:55;;;;;;;4.85;1.25;;;15.90;82.60;;;;;;5123416;27;20043;-72
2021/10/12 12:01:34;;;;;;;7.18;1.08;;;16.00;82.80;;;;;;5122638;27;20031;-72
2021/10/12 12:04:01;;;;;;;5.60;2.58;;;16.00;81.80;;;;;;5124333;27;20038;-72
2021/10/12 12:06:29;;;;;;;5.78;1.23;;;16.00;82.20;;;;;;5106887;27;20085;-72
2021/10/12 12:08:58;;;;;;;4.55;0.90;;;16.00;81.80;;;;;;5118962;27;20043;-72
2021/10/12 12:11:28;;;;;;;5.30;1.40;;;16.00;81.30;;;;;;5128596;27;20386;-74
2021/10/12 12:13:54;;;;;;;5.03;1.23;;;16.00;81.20;;;;;;5127977;27;20113;-73
2021/10/12 12:16:22;;;;;;;4.82;1.52;;;16.00;81.10;;;;;;5113022;27;20060;-73
2021/10/12 12:18:48;;;;;;;6.15;1.33;;;16.00;80.70;;;;;;5127081;27;20032;-73
2021/10/12 12:21:27;;;;;;;6.35;1.48;;;16.10;80.20;;;;;;5125328;27;20363;-74
2021/10/12 12:23:56;;;;;;;4.85;0.90;;;16.10;79.80;;;;;;5116170;27;20058;-73
2021/10/12 12:26:25;;;;;;;1.38;0.82;;;16.10;80.20;;;;;;5128634;27;20023;-73
2021/10/12 12:28:51;;;;;;;2.20;0.90;;;16.00;81.60;;;;;;5117847;27;20494;-73
2021/10/12 12:31:25;;;;;;;5.72;1.63;;;16.00;80.40;;;;;;5124348;27;20020;-79
2021/10/12 12:33:56;;;;;;;6.43;0.95;;;16.00;79.90;;;;;;5123412;27;20031;-74
2021/10/12 12:36:33;;;;;;;7.63;1.10;;;16.10;80.60;;;;;;5123101;27;20031;-71
2021/10/12 12:39:09;;;;;;;1.38;0.55;;;16.10;80.40;;;;;;5122159;27;20050;-70
2021/10/12 12:41:40;;;;;;;2.95;0.93;;;16.10;80.10;;;;;;5128266;27;20505;-70
2021/10/12 12:44:08;;;;;;;7.50;1.17;;;16.10;79.40;;;;;;5127339;27;20501;-71
2021/10/12 12:46:36;;;;;;;5.13;1.08;;;16.10;79.30;;;;;;5124440;27;20253;-72
2021/10/12 12:49:10;;;;;;;4.60;1.23;;;16.10;79.10;;;;;;5121668;27;20036;-73
2021/10/12 12:51:38;;;;;;;4.72;1.13;;;16.10;78.00;;;;;;5120471;27;20035;-72
2021/10/12 12:54:04;;;;;;;6.28;1.20;;;16.20;78.70;;;;;;5124934;27;20027;-72